Date,TemperatureHighF,TemperatureAvgF,TemperatureLowF,DewpointHighF,DewpointAvgF,DewpointLowF,HumidityHigh,HumidityAvg,HumidityLow,PressureMaxIn,PressureMinIn,WindSpeedMaxMPH,WindSpeedAvgMPH,GustSpeedMaxMPH,PrecipitationSumIn
2013-1-4,22.8,22.8,22.8,16.1,16.1,16.1,75,75,75,30.37,30.37,16,16,16,0.00
2013-1-7,33.4,30.0,25.3,27.2,25.2,23.0,93,82,76,30.48,30.25,18,11,26,0.00
2013-1-8,41.2,32.4,24.2,31.8,27.0,20.6,88,81,68,30.31,30.22,14,8,19,0.00
2013-1-9,44.8,40.1,35.9,38.1,34.9,29.9,92,82,70,30.53,30.18,16,9,19,0.02
2013-1-10,45.7,37.8,30.4,43.2,33.0,26.4,93,83,74,30.53,30.06,12,7,14,0.08
2013-1-11,57.6,52.9,45.9,53.6,49.3,42.2,96,88,78,30.06,29.82,20,12,26,0.50
2013-1-12,62.3,54.7,50.6,56.3,51.7,46.7,97,90,77,29.98,29.70,15,9,22,0.81
2013-1-13,55.4,37.9,22.8,54.6,36.5,19.8,97,94,87,30.22,29.65,23,10,27,1.13
2013-1-14,23.1,20.2,17.0,20.3,16.5,13.5,90,86,81,30.50,30.23,17,8,26,0.00
2013-1-15,29.1,24.8,19.5,23.6,20.2,16.9,90,82,72,30.45,30.14,15,10,18,0.00
2013-1-16,34.5,29.0,23.9,26.0,23.8,21.1,92,81,65,30.14,29.98,13,5,14,0.00
2013-1-17,37.1,30.8,23.1,31.0,25.2,17.0,89,80,64,30.44,30.11,14,6,18,0.00
2013-1-18,36.9,29.6,21.4,27.6,22.1,17.3,86,74,57,30.52,30.14,27,12,37,0.00
2013-1-19,51.3,43.7,36.5,38.0,32.4,26.4,75,64,55,30.16,29.86,24,14,26,0.00
2013-1-20,44.4,26.1,20.7,36.8,16.7,10.4,76,67,58,30.29,29.90,30,15,40,0.00
2013-1-21,21.7,15.0,8.5,14.0,7.3,-1.2,84,71,58,30.31,30.17,23,16,40,0.00
2013-1-22,14.6,9.3,4.3,2.9,0.2,-1.7,86,66,53,30.46,30.32,18,12,25,0.00
2013-1-23,22.1,16.4,10.7,15.8,7.3,1.5,81,67,52,30.42,30.16,16,5,23,0.00
2013-1-24,20.0,15.5,11.2,13.9,9.0,4.3,85,75,54,30.66,30.21,15,8,19,0.00
2013-1-28,50.8,48.6,45.0,50.0,47.6,43.9,98,96,95,30.03,-32.77,23,11,25,0.00
2013-1-29,63.4,56.2,50.2,58.8,54.1,49.7,98,93,84,29.99,29.40,26,18,35,0.00
2013-1-30,64.5,46.6,27.7,59.8,44.1,24.1,97,91,82,29.59,29.22,34,16,46,0.73
2013-1-31,27.6,21.4,10.3,24.2,16.4,3.6,91,81,72,30.14,29.58,30,21,39,0.00